sensor_id;sensor_type;location;lat;lon;timestamp;P1;durP1;ratioP1;P2;durP2;ratioP2
12480;SDS011;6305;48.398;11.762;2023-05-06T00:02:04;26.67;;;15.88;;
12480;SDS011;6305;48.398;11.762;2023-05-06T00:04:34;29.70;;;16.02;;
12480;SDS011;6305;48.398;11.762;2023-05-06T00:07:01;24.75;;;15.88;;
12480;SDS011;6305;48.398;11.762;2023-05-06T00:09:28;32.63;;;17.52;;
12480;SDS011;6305;48.398;11.762;2023-05-06T00:11:55;30.42;;;17.75;;
12480;SDS011;6305;48.398;11.762;2023-05-06T00:14:23;29.45;;;17.80;;
12480;SDS011;6305;48.398;11.762;2023-05-06T00:16:50;27.38;;;16.42;;
12480;SDS011;6305;48.398;11.762;2023-05-06T00:19:17;28.20;;;17.05;;
12480;SDS011;6305;48.398;11.762;2023-05-06T00:21:45;31.33;;;18.60;;
12480;SDS011;6305;48.398;11.762;2023-05-06T00:24:13;31.80;;;18.35;;
12480;SDS011;6305;48.398;11.762;2023-05-06T00:26:39;29.88;;;18.88;;
12480;SDS011;6305;48.398;11.762;2023-05-06T00:29:06;32.58;;;19.52;;
12480;SDS011;6305;48.398;11.762;2023-05-06T00:31:33;31.88;;;17.38;;
12480;SDS011;6305;48.398;11.762;2023-05-06T00:34:00;32.50;;;18.13;;
12480;SDS011;6305;48.398;11.762;2023-05-06T00:36:27;32.65;;;19.17;;
12480;SDS011;6305;48.398;11.762;2023-05-06T00:38:55;34.20;;;19.50;;
12480;SDS011;6305;48.398;11.762;2023-05-06T00:41:22;32.88;;;18.38;;
12480;SDS011;6305;48.398;11.762;2023-05-06T00:43:49;33.17;;;18.58;;
12480;SDS011;6305;48.398;11.762;2023-05-06T00:46:17;32.80;;;19.52;;
12480;SDS011;6305;48.398;11.762;2023-05-06T00:48:44;36.47;;;19.85;;
12480;SDS011;6305;48.398;11.762;2023-05-06T00:51:11;38.13;;;19.80;;
12480;SDS011;6305;48.398;11.762;2023-05-06T00:53:38;34.55;;;19.02;;
12480;SDS011;6305;48.398;11.762;2023-05-06T00:56:08;38.28;;;19.73;;
12480;SDS011;6305;48.398;11.762;2023-05-06T00:58:35;36.80;;;18.88;;
12480;SDS011;6305;48.398;11.762;2023-05-06T01:01:03;43.22;;;21.75;;
12480;SDS011;6305;48.398;11.762;2023-05-06T01:03:31;45.63;;;22.50;;
12480;SDS011;6305;48.398;11.762;2023-05-06T01:06:01;47.60;;;23.27;;
12480;SDS011;6305;48.398;11.762;2023-05-06T01:08:36;44.15;;;22.98;;
12480;SDS011;6305;48.398;11.762;2023-05-06T01:11:12;45.28;;;22.70;;
12480;SDS011;6305;48.398;11.762;2023-05-06T01:13:44;48.03;;;24.08;;
12480;SDS011;6305;48.398;11.762;2023-05-06T01:16:17;43.30;;;21.58;;
12480;SDS011;6305;48.398;11.762;2023-05-06T01:18:48;48.60;;;23.90;;
12480;SDS011;6305;48.398;11.762;2023-05-06T01:21:17;43.28;;;24.17;;
12480;SDS011;6305;48.398;11.762;2023-05-06T01:23:52;48.00;;;24.88;;
12480;SDS011;6305;48.398;11.762;2023-05-06T01:26:19;55.28;;;26.27;;
12480;SDS011;6305;48.398;11.762;2023-05-06T01:28:46;51.42;;;24.55;;
12480;SDS011;6305;48.398;11.762;2023-05-06T01:31:16;49.15;;;26.10;;
12480;SDS011;6305;48.398;11.762;2023-05-06T01:33:53;51.08;;;24.98;;
12480;SDS011;6305;48.398;11.762;2023-05-06T01:36:31;50.25;;;25.85;;
12480;SDS011;6305;48.398;11.762;2023-05-06T01:39:07;49.80;;;25.75;;
12480;SDS011;6305;48.398;11.762;2023-05-06T01:41:38;59.70;;;27.27;;
12480;SDS011;6305;48.398;11.762;2023-05-06T01:44:08;54.75;;;26.50;;
12480;SDS011;6305;48.398;11.762;2023-05-06T01:46:37;49.20;;;24.67;;
12480;SDS011;6305;48.398;11.762;2023-05-06T01:49:06;53.45;;;27.33;;
12480;SDS011;6305;48.398;11.762;2023-05-06T01:51:35;52.22;;;26.90;;
12480;SDS011;6305;48.398;11.762;2023-05-06T01:54:03;59.90;;;28.00;;
12480;SDS011;6305;48.398;11.762;2023-05-06T01:56:31;60.75;;;29.30;;
12480;SDS011;6305;48.398;11.762;2023-05-06T01:58:58;54.30;;;27.38;;
12480;SDS011;6305;48.398;11.762;2023-05-06T02:01:25;59.13;;;28.85;;
12480;SDS011;6305;48.398;11.762;2023-05-06T02:03:52;57.13;;;29.77;;
12480;SDS011;6305;48.398;11.762;2023-05-06T02:06:20;56.53;;;29.10;;
12480;SDS011;6305;48.398;11.762;2023-05-06T02:08:47;54.22;;;28.58;;
12480;SDS011;6305;48.398;11.762;2023-05-06T02:11:18;63.20;;;29.92;;
12480;SDS011;6305;48.398;11.762;2023-05-06T02:13:48;56.47;;;29.33;;
12480;SDS011;6305;48.398;11.762;2023-05-06T02:16:16;63.63;;;30.65;;
12480;SDS011;6305;48.398;11.762;2023-05-06T02:18:44;67.95;;;31.25;;
12480;SDS011;6305;48.398;11.762;2023-05-06T02:21:11;56.85;;;29.70;;
12480;SDS011;6305;48.398;11.762;2023-05-06T02:23:38;63.22;;;30.50;;
12480;SDS011;6305;48.398;11.762;2023-05-06T02:26:05;60.22;;;30.73;;
12480;SDS011;6305;48.398;11.762;2023-05-06T02:28:32;60.95;;;31.80;;
12480;SDS011;6305;48.398;11.762;2023-05-06T02:31:00;65.75;;;31.48;;
12480;SDS011;6305;48.398;11.762;2023-05-06T02:33:27;61.00;;;30.50;;
12480;SDS011;6305;48.398;11.762;2023-05-06T02:35:54;66.55;;;32.95;;
12480;SDS011;6305;48.398;11.762;2023-05-06T02:38:21;62.55;;;30.85;;
12480;SDS011;6305;48.398;11.762;2023-05-06T02:40:48;68.07;;;34.05;;
12480;SDS011;6305;48.398;11.762;2023-05-06T02:43:15;76.95;;;34.95;;
12480;SDS011;6305;48.398;11.762;2023-05-06T02:46:02;65.43;;;32.58;;
12480;SDS011;6305;48.398;11.762;2023-05-06T02:48:47;71.45;;;33.75;;
12480;SDS011;6305;48.398;11.762;2023-05-06T02:51:14;70.78;;;35.50;;
12480;SDS011;6305;48.398;11.762;2023-05-06T02:53:41;74.25;;;34.92;;
12480;SDS011;6305;48.398;11.762;2023-05-06T02:56:09;74.18;;;35.03;;
12480;SDS011;6305;48.398;11.762;2023-05-06T02:58:35;70.97;;;32.53;;
12480;SDS011;6305;48.398;11.762;2023-05-06T03:01:04;71.43;;;34.63;;
12480;SDS011;6305;48.398;11.762;2023-05-06T03:03:31;74.78;;;33.47;;
12480;SDS011;6305;48.398;11.762;2023-05-06T03:05:58;70.53;;;33.92;;
12480;SDS011;6305;48.398;11.762;2023-05-06T03:08:25;72.85;;;33.53;;
12480;SDS011;6305;48.398;11.762;2023-05-06T03:10:54;74.18;;;33.05;;
12480;SDS011;6305;48.398;11.762;2023-05-06T03:13:21;67.72;;;31.30;;
12480;SDS011;6305;48.398;11.762;2023-05-06T03:15:50;67.53;;;31.90;;
12480;SDS011;6305;48.398;11.762;2023-05-06T03:18:20;71.40;;;32.58;;
12480;SDS011;6305;48.398;11.762;2023-05-06T03:20:48;78.75;;;34.28;;
12480;SDS011;6305;48.398;11.762;2023-05-06T03:23:15;73.03;;;33.63;;
12480;SDS011;6305;48.398;11.762;2023-05-06T03:25:43;80.38;;;35.75;;
12480;SDS011;6305;48.398;11.762;2023-05-06T03:28:10;80.28;;;36.65;;
12480;SDS011;6305;48.398;11.762;2023-05-06T03:30:38;83.97;;;35.67;;
12480;SDS011;6305;48.398;11.762;2023-05-06T03:33:07;82.43;;;36.70;;
12480;SDS011;6305;48.398;11.762;2023-05-06T03:35:36;77.43;;;35.60;;
12480;SDS011;6305;48.398;11.762;2023-05-06T03:38:04;79.53;;;36.10;;
12480;SDS011;6305;48.398;11.762;2023-05-06T03:40:41;79.40;;;34.25;;
12480;SDS011;6305;48.398;11.762;2023-05-06T03:43:08;80.90;;;35.88;;
12480;SDS011;6305;48.398;11.762;2023-05-06T03:45:35;75.85;;;34.90;;
12480;SDS011;6305;48.398;11.762;2023-05-06T03:48:03;79.93;;;34.33;;
12480;SDS011;6305;48.398;11.762;2023-05-06T03:50:33;73.82;;;32.47;;
12480;SDS011;6305;48.398;11.762;2023-05-06T03:53:08;73.72;;;34.47;;
12480;SDS011;6305;48.398;11.762;2023-05-06T03:55:39;80.85;;;35.13;;
12480;SDS011;6305;48.398;11.762;2023-05-06T03:58:07;83.53;;;36.25;;
12480;SDS011;6305;48.398;11.762;2023-05-06T04:00:35;83.30;;;35.75;;
12480;SDS011;6305;48.398;11.762;2023-05-06T04:03:01;79.35;;;36.50;;
12480;SDS011;6305;48.398;11.762;2023-05-06T04:05:37;92.30;;;39.97;;
12480;SDS011;6305;48.398;11.762;2023-05-06T04:08:04;87.75;;;38.17;;
12480;SDS011;6305;48.398;11.762;2023-05-06T04:10:36;86.22;;;37.10;;
12480;SDS011;6305;48.398;11.762;2023-05-06T04:13:07;79.93;;;33.88;;
12480;SDS011;6305;48.398;11.762;2023-05-06T04:15:39;85.20;;;37.22;;
12480;SDS011;6305;48.398;11.762;2023-05-06T04:18:10;85.28;;;38.33;;
12480;SDS011;6305;48.398;11.762;2023-05-06T04:20:44;89.80;;;36.22;;
12480;SDS011;6305;48.398;11.762;2023-05-06T04:23:12;77.60;;;34.88;;
12480;SDS011;6305;48.398;11.762;2023-05-06T04:25:41;78.68;;;36.58;;
12480;SDS011;6305;48.398;11.762;2023-05-06T04:28:13;75.22;;;34.45;;
12480;SDS011;6305;48.398;11.762;2023-05-06T04:30:42;77.10;;;35.30;;
12480;SDS011;6305;48.398;11.762;2023-05-06T04:33:10;81.20;;;34.28;;
12480;SDS011;6305;48.398;11.762;2023-05-06T04:35:38;77.13;;;33.28;;
12480;SDS011;6305;48.398;11.762;2023-05-06T04:38:06;83.18;;;34.80;;
12480;SDS011;6305;48.398;11.762;2023-05-06T04:40:33;78.35;;;36.45;;
12480;SDS011;6305;48.398;11.762;2023-05-06T04:43:05;77.88;;;34.20;;
12480;SDS011;6305;48.398;11.762;2023-05-06T04:45:32;79.10;;;36.05;;
12480;SDS011;6305;48.398;11.762;2023-05-06T04:48:02;84.07;;;37.10;;
12480;SDS011;6305;48.398;11.762;2023-05-06T04:50:30;80.30;;;36.78;;
12480;SDS011;6305;48.398;11.762;2023-05-06T04:52:57;72.82;;;34.72;;
12480;SDS011;6305;48.398;11.762;2023-05-06T04:55:24;74.82;;;34.75;;
12480;SDS011;6305;48.398;11.762;2023-05-06T04:57:52;75.30;;;33.05;;
12480;SDS011;6305;48.398;11.762;2023-05-06T05:00:21;65.45;;;31.90;;
12480;SDS011;6305;48.398;11.762;2023-05-06T05:02:50;61.45;;;30.88;;
12480;SDS011;6305;48.398;11.762;2023-05-06T05:05:18;65.15;;;31.67;;
12480;SDS011;6305;48.398;11.762;2023-05-06T05:07:49;67.80;;;31.92;;
12480;SDS011;6305;48.398;11.762;2023-05-06T05:10:17;68.72;;;32.58;;
12480;SDS011;6305;48.398;11.762;2023-05-06T05:12:46;62.95;;;30.45;;
12480;SDS011;6305;48.398;11.762;2023-05-06T05:15:13;63.58;;;31.13;;
12480;SDS011;6305;48.398;11.762;2023-05-06T05:17:42;65.93;;;32.22;;
12480;SDS011;6305;48.398;11.762;2023-05-06T05:20:09;56.55;;;30.13;;
12480;SDS011;6305;48.398;11.762;2023-05-06T05:22:37;57.38;;;29.40;;
12480;SDS011;6305;48.398;11.762;2023-05-06T05:25:05;50.35;;;26.77;;
12480;SDS011;6305;48.398;11.762;2023-05-06T05:27:33;47.65;;;25.58;;
12480;SDS011;6305;48.398;11.762;2023-05-06T05:30:00;45.25;;;25.05;;
12480;SDS011;6305;48.398;11.762;2023-05-06T05:32:30;46.15;;;25.67;;
12480;SDS011;6305;48.398;11.762;2023-05-06T05:34:59;37.88;;;22.30;;
12480;SDS011;6305;48.398;11.762;2023-05-06T05:37:26;41.65;;;23.75;;
12480;SDS011;6305;48.398;11.762;2023-05-06T05:39:53;39.67;;;24.02;;
12480;SDS011;6305;48.398;11.762;2023-05-06T05:42:20;37.95;;;24.08;;
12480;SDS011;6305;48.398;11.762;2023-05-06T05:44:48;38.80;;;22.95;;
12480;SDS011;6305;48.398;11.762;2023-05-06T05:47:16;34.90;;;21.33;;
12480;SDS011;6305;48.398;11.762;2023-05-06T05:49:43;35.85;;;22.27;;
12480;SDS011;6305;48.398;11.762;2023-05-06T05:52:12;38.25;;;21.27;;
12480;SDS011;6305;48.398;11.762;2023-05-06T05:54:39;28.70;;;18.13;;
12480;SDS011;6305;48.398;11.762;2023-05-06T05:57:06;22.23;;;17.08;;
12480;SDS011;6305;48.398;11.762;2023-05-06T05:59:33;19.38;;;15.02;;
12480;SDS011;6305;48.398;11.762;2023-05-06T06:02:03;14.73;;;12.73;;
12480;SDS011;6305;48.398;11.762;2023-05-06T06:04:31;14.35;;;10.80;;
12480;SDS011;6305;48.398;11.762;2023-05-06T06:06:58;12.48;;;9.60;;
12480;SDS011;6305;48.398;11.762;2023-05-06T06:09:28;9.05;;;8.15;;
12480;SDS011;6305;48.398;11.762;2023-05-06T06:11:57;9.65;;;7.55;;
12480;SDS011;6305;48.398;11.762;2023-05-06T06:14:24;8.07;;;7.28;;
12480;SDS011;6305;48.398;11.762;2023-05-06T06:16:51;8.30;;;7.50;;
12480;SDS011;6305;48.398;11.762;2023-05-06T06:19:19;7.70;;;6.68;;
12480;SDS011;6305;48.398;11.762;2023-05-06T06:21:46;8.15;;;7.35;;
12480;SDS011;6305;48.398;11.762;2023-05-06T06:24:13;7.72;;;6.63;;
12480;SDS011;6305;48.398;11.762;2023-05-06T06:26:42;8.15;;;7.35;;
12480;SDS011;6305;48.398;11.762;2023-05-06T06:29:09;8.27;;;7.47;;
12480;SDS011;6305;48.398;11.762;2023-05-06T06:31:36;8.60;;;7.13;;
12480;SDS011;6305;48.398;11.762;2023-05-06T06:34:03;9.00;;;8.10;;
12480;SDS011;6305;48.398;11.762;2023-05-06T06:36:30;10.38;;;7.88;;
12480;SDS011;6305;48.398;11.762;2023-05-06T06:38:57;9.55;;;8.10;;
12480;SDS011;6305;48.398;11.762;2023-05-06T06:41:26;9.55;;;7.90;;
12480;SDS011;6305;48.398;11.762;2023-05-06T06:44:02;10.02;;;7.75;;
12480;SDS011;6305;48.398;11.762;2023-05-06T06:46:33;9.23;;;8.20;;
12480;SDS011;6305;48.398;11.762;2023-05-06T06:49:00;8.70;;;7.65;;
12480;SDS011;6305;48.398;11.762;2023-05-06T06:51:27;8.23;;;7.43;;
12480;SDS011;6305;48.398;11.762;2023-05-06T06:53:56;7.60;;;6.85;;
12480;SDS011;6305;48.398;11.762;2023-05-06T06:56:23;7.22;;;6.53;;
12480;SDS011;6305;48.398;11.762;2023-05-06T06:58:50;7.95;;;7.00;;
12480;SDS011;6305;48.398;11.762;2023-05-06T07:01:19;7.97;;;7.15;;
12480;SDS011;6305;48.398;11.762;2023-05-06T07:03:45;7.35;;;6.65;;
12480;SDS011;6305;48.398;11.762;2023-05-06T07:06:12;7.88;;;7.07;;
12480;SDS011;6305;48.398;11.762;2023-05-06T07:08:40;9.30;;;7.30;;
12480;SDS011;6305;48.398;11.762;2023-05-06T07:11:07;7.22;;;6.40;;
12480;SDS011;6305;48.398;11.762;2023-05-06T07:13:34;7.32;;;6.60;;
12480;SDS011;6305;48.398;11.762;2023-05-06T07:16:01;9.60;;;6.60;;
12480;SDS011;6305;48.398;11.762;2023-05-06T07:18:30;7.22;;;6.53;;
12480;SDS011;6305;48.398;11.762;2023-05-06T07:20:57;10.57;;;7.20;;
12480;SDS011;6305;48.398;11.762;2023-05-06T07:23:24;8.60;;;6.82;;
12480;SDS011;6305;48.398;11.762;2023-05-06T07:25:52;7.40;;;6.60;;
12480;SDS011;6305;48.398;11.762;2023-05-06T07:28:19;8.73;;;7.53;;
12480;SDS011;6305;48.398;11.762;2023-05-06T07:30:47;7.90;;;7.10;;
12480;SDS011;6305;48.398;11.762;2023-05-06T07:33:15;7.93;;;7.13;;
12480;SDS011;6305;48.398;11.762;2023-05-06T07:35:43;7.68;;;6.88;;
12480;SDS011;6305;48.398;11.762;2023-05-06T07:38:11;8.05;;;7.22;;
12480;SDS011;6305;48.398;11.762;2023-05-06T07:40:37;7.97;;;6.68;;
12480;SDS011;6305;48.398;11.762;2023-05-06T07:43:05;7.65;;;6.57;;
12480;SDS011;6305;48.398;11.762;2023-05-06T07:45:33;7.90;;;5.95;;
12480;SDS011;6305;48.398;11.762;2023-05-06T07:48:00;6.63;;;6.03;;
12480;SDS011;6305;48.398;11.762;2023-05-06T07:50:28;7.40;;;6.13;;
12480;SDS011;6305;48.398;11.762;2023-05-06T07:52:57;6.72;;;5.85;;
12480;SDS011;6305;48.398;11.762;2023-05-06T07:55:24;5.95;;;5.35;;
12480;SDS011;6305;48.398;11.762;2023-05-06T07:57:51;7.82;;;5.93;;
12480;SDS011;6305;48.398;11.762;2023-05-06T08:00:18;6.80;;;5.60;;
12480;SDS011;6305;48.398;11.762;2023-05-06T08:02:45;8.60;;;5.72;;
12480;SDS011;6305;48.398;11.762;2023-05-06T08:05:13;6.13;;;5.53;;
12480;SDS011;6305;48.398;11.762;2023-05-06T08:07:41;5.70;;;5.20;;
12480;SDS011;6305;48.398;11.762;2023-05-06T08:10:10;6.40;;;5.40;;
12480;SDS011;6305;48.398;11.762;2023-05-06T08:12:37;5.57;;;5.00;;
12480;SDS011;6305;48.398;11.762;2023-05-06T08:15:05;5.63;;;4.28;;
12480;SDS011;6305;48.398;11.762;2023-05-06T08:17:32;5.60;;;5.05;;
12480;SDS011;6305;48.398;11.762;2023-05-06T08:19:59;6.00;;;4.57;;
12480;SDS011;6305;48.398;11.762;2023-05-06T08:22:26;5.28;;;4.78;;
12480;SDS011;6305;48.398;11.762;2023-05-06T08:24:54;6.82;;;5.18;;
12480;SDS011;6305;48.398;11.762;2023-05-06T08:27:23;6.55;;;5.10;;
12480;SDS011;6305;48.398;11.762;2023-05-06T08:29:50;6.13;;;5.53;;
12480;SDS011;6305;48.398;11.762;2023-05-06T08:32:17;5.82;;;5.32;;
12480;SDS011;6305;48.398;11.762;2023-05-06T08:34:44;5.25;;;4.70;;
12480;SDS011;6305;48.398;11.762;2023-05-06T08:37:12;4.93;;;4.43;;
12480;SDS011;6305;48.398;11.762;2023-05-06T08:39:39;5.05;;;4.55;;
12480;SDS011;6305;48.398;11.762;2023-05-06T08:42:06;6.03;;;4.55;;
12480;SDS011;6305;48.398;11.762;2023-05-06T08:44:37;6.53;;;4.40;;
12480;SDS011;6305;48.398;11.762;2023-05-06T08:47:04;5.35;;;4.85;;
12480;SDS011;6305;48.398;11.762;2023-05-06T08:49:31;4.85;;;4.38;;
12480;SDS011;6305;48.398;11.762;2023-05-06T08:51:59;6.35;;;4.70;;
12480;SDS011;6305;48.398;11.762;2023-05-06T08:54:29;5.55;;;5.00;;
12480;SDS011;6305;48.398;11.762;2023-05-06T08:57:00;4.97;;;4.50;;
12480;SDS011;6305;48.398;11.762;2023-05-06T08:59:29;5.38;;;4.88;;
12480;SDS011;6305;48.398;11.762;2023-05-06T09:02:00;5.13;;;4.57;;
12480;SDS011;6305;48.398;11.762;2023-05-06T09:04:27;6.90;;;4.82;;
12480;SDS011;6305;48.398;11.762;2023-05-06T09:06:54;5.32;;;4.82;;
12480;SDS011;6305;48.398;11.762;2023-05-06T09:09:23;4.80;;;4.30;;
12480;SDS011;6305;48.398;11.762;2023-05-06T09:11:50;4.75;;;4.10;;
12480;SDS011;6305;48.398;11.762;2023-05-06T09:14:20;4.93;;;4.28;;
12480;SDS011;6305;48.398;11.762;2023-05-06T09:16:48;4.57;;;4.18;;
12480;SDS011;6305;48.398;11.762;2023-05-06T09:19:18;6.60;;;4.43;;
12480;SDS011;6305;48.398;11.762;2023-05-06T09:21:46;3.83;;;3.53;;
12480;SDS011;6305;48.398;11.762;2023-05-06T09:24:15;4.90;;;4.40;;
12480;SDS011;6305;48.398;11.762;2023-05-06T09:26:43;4.82;;;4.30;;
12480;SDS011;6305;48.398;11.762;2023-05-06T09:29:11;4.68;;;4.20;;
12480;SDS011;6305;48.398;11.762;2023-05-06T09:31:41;4.40;;;4.00;;
12480;SDS011;6305;48.398;11.762;2023-05-06T09:34:10;5.97;;;4.13;;
12480;SDS011;6305;48.398;11.762;2023-05-06T09:36:40;3.95;;;3.63;;
12480;SDS011;6305;48.398;11.762;2023-05-06T09:39:08;4.47;;;3.47;;
12480;SDS011;6305;48.398;11.762;2023-05-06T09:41:35;4.00;;;3.63;;
12480;SDS011;6305;48.398;11.762;2023-05-06T09:44:02;5.50;;;3.70;;
12480;SDS011;6305;48.398;11.762;2023-05-06T09:46:30;2.95;;;2.75;;
12480;SDS011;6305;48.398;11.762;2023-05-06T09:48:58;5.72;;;3.25;;
12480;SDS011;6305;48.398;11.762;2023-05-06T09:51:25;3.60;;;2.90;;
12480;SDS011;6305;48.398;11.762;2023-05-06T09:53:54;5.22;;;3.47;;
12480;SDS011;6305;48.398;11.762;2023-05-06T09:56:23;3.58;;;3.20;;
12480;SDS011;6305;48.398;11.762;2023-05-06T09:58:51;5.13;;;3.15;;
12480;SDS011;6305;48.398;11.762;2023-05-06T10:01:20;3.30;;;3.00;;
12480;SDS011;6305;48.398;11.762;2023-05-06T10:03:48;4.03;;;3.22;;
12480;SDS011;6305;48.398;11.762;2023-05-06T10:06:18;3.28;;;2.80;;
12480;SDS011;6305;48.398;11.762;2023-05-06T10:08:48;3.35;;;2.75;;
12480;SDS011;6305;48.398;11.762;2023-05-06T10:11:17;17.48;;;3.45;;
12480;SDS011;6305;48.398;11.762;2023-05-06T10:13:47;4.40;;;2.63;;
12480;SDS011;6305;48.398;11.762;2023-05-06T10:16:15;3.22;;;2.40;;
12480;SDS011;6305;48.398;11.762;2023-05-06T10:18:44;2.65;;;2.42;;
12480;SDS011;6305;48.398;11.762;2023-05-06T10:21:13;3.78;;;2.40;;
12480;SDS011;6305;48.398;11.762;2023-05-06T10:23:46;4.38;;;2.40;;
12480;SDS011;6305;48.398;11.762;2023-05-06T10:26:21;3.05;;;2.10;;
12480;SDS011;6305;48.398;11.762;2023-05-06T10:28:49;2.28;;;2.00;;
12480;SDS011;6305;48.398;11.762;2023-05-06T10:31:19;2.85;;;2.20;;
12480;SDS011;6305;48.398;11.762;2023-05-06T10:33:47;2.00;;;1.63;;
12480;SDS011;6305;48.398;11.762;2023-05-06T10:36:17;2.38;;;1.70;;
12480;SDS011;6305;48.398;11.762;2023-05-06T10:38:47;2.20;;;1.88;;
12480;SDS011;6305;48.398;11.762;2023-05-06T10:41:20;2.55;;;1.58;;
12480;SDS011;6305;48.398;11.762;2023-05-06T10:43:50;2.05;;;1.52;;
12480;SDS011;6305;48.398;11.762;2023-05-06T10:46:21;1.90;;;1.80;;
12480;SDS011;6305;48.398;11.762;2023-05-06T10:51:47;2.30;;;1.85;;
12480;SDS011;6305;48.398;11.762;2023-05-06T10:54:36;3.25;;;2.10;;
12480;SDS011;6305;48.398;11.762;2023-05-06T10:57:14;1.92;;;1.70;;
12480;SDS011;6305;48.398;11.762;2023-05-06T10:59:43;2.80;;;2.08;;
12480;SDS011;6305;48.398;11.762;2023-05-06T11:02:12;2.00;;;1.80;;
12480;SDS011;6305;48.398;11.762;2023-05-06T11:04:40;1.80;;;1.70;;
12480;SDS011;6305;48.398;11.762;2023-05-06T11:07:09;1.70;;;1.60;;
12480;SDS011;6305;48.398;11.762;2023-05-06T11:09:53;1.70;;;1.60;;
12480;SDS011;6305;48.398;11.762;2023-05-06T11:12:26;2.35;;;1.80;;
12480;SDS011;6305;48.398;11.762;2023-05-06T11:15:17;1.73;;;1.50;;
12480;SDS011;6305;48.398;11.762;2023-05-06T11:17:46;1.98;;;1.88;;
12480;SDS011;6305;48.398;11.762;2023-05-06T11:20:19;4.13;;;1.63;;
12480;SDS011;6305;48.398;11.762;2023-05-06T11:22:47;2.25;;;1.80;;
12480;SDS011;6305;48.398;11.762;2023-05-06T11:28:08;3.38;;;1.58;;
12480;SDS011;6305;48.398;11.762;2023-05-06T11:30:36;1.85;;;1.63;;
12480;SDS011;6305;48.398;11.762;2023-05-06T11:33:06;3.03;;;1.42;;
12480;SDS011;6305;48.398;11.762;2023-05-06T11:35:35;2.20;;;1.50;;
12480;SDS011;6305;48.398;11.762;2023-05-06T11:38:02;2.75;;;1.48;;
12480;SDS011;6305;48.398;11.762;2023-05-06T11:40:30;1.60;;;1.50;;
12480;SDS011;6305;48.398;11.762;2023-05-06T11:43:09;2.00;;;1.80;;
12480;SDS011;6305;48.398;11.762;2023-05-06T11:45:40;4.65;;;1.80;;
12480;SDS011;6305;48.398;11.762;2023-05-06T11:48:10;2.22;;;2.03;;
12480;SDS011;6305;48.398;11.762;2023-05-06T11:50:37;1.95;;;1.60;;
12480;SDS011;6305;48.398;11.762;2023-05-06T11:53:04;2.08;;;1.70;;
12480;SDS011;6305;48.398;11.762;2023-05-06T11:55:31;1.63;;;1.35;;
12480;SDS011;6305;48.398;11.762;2023-05-06T11:57:58;1.88;;;1.30;;
12480;SDS011;6305;48.398;11.762;2023-05-06T12:00:27;4.28;;;1.65;;
12480;SDS011;6305;48.398;11.762;2023-05-06T12:02:54;3.28;;;1.63;;
12480;SDS011;6305;48.398;11.762;2023-05-06T12:05:28;2.45;;;1.60;;
12480;SDS011;6305;48.398;11.762;2023-05-06T12:07:55;1.42;;;1.20;;
12480;SDS011;6305;48.398;11.762;2023-05-06T12:10:22;1.52;;;1.20;;
12480;SDS011;6305;48.398;11.762;2023-05-06T12:12:49;1.75;;;1.40;;
12480;SDS011;6305;48.398;11.762;2023-05-06T12:15:16;1.48;;;1.38;;
12480;SDS011;6305;48.398;11.762;2023-05-06T12:17:45;1.58;;;1.40;;
12480;SDS011;6305;48.398;11.762;2023-05-06T12:20:12;1.30;;;1.20;;
12480;SDS011;6305;48.398;11.762;2023-05-06T12:22:40;1.33;;;1.10;;
12480;SDS011;6305;48.398;11.762;2023-05-06T12:25:13;1.38;;;1.27;;
12480;SDS011;6305;48.398;11.762;2023-05-06T12:27:41;1.60;;;1.25;;
12480;SDS011;6305;48.398;11.762;2023-05-06T12:30:09;1.38;;;1.20;;
12480;SDS011;6305;48.398;11.762;2023-05-06T12:35:24;1.30;;;1.15;;
12480;SDS011;6305;48.398;11.762;2023-05-06T12:37:51;1.48;;;1.30;;
12480;SDS011;6305;48.398;11.762;2023-05-06T12:40:18;1.60;;;1.20;;
12480;SDS011;6305;48.398;11.762;2023-05-06T12:42:52;1.40;;;1.30;;
12480;SDS011;6305;48.398;11.762;2023-05-06T12:45:19;0.95;;;0.93;;
12480;SDS011;6305;48.398;11.762;2023-05-06T12:47:50;1.77;;;1.13;;
12480;SDS011;6305;48.398;11.762;2023-05-06T12:50:30;1.15;;;1.10;;
12480;SDS011;6305;48.398;11.762;2023-05-06T12:52:59;1.05;;;0.98;;
12480;SDS011;6305;48.398;11.762;2023-05-06T12:55:26;1.30;;;1.20;;
12480;SDS011;6305;48.398;11.762;2023-05-06T12:57:55;1.80;;;1.00;;
12480;SDS011;6305;48.398;11.762;2023-05-06T13:00:22;1.80;;;1.20;;
12480;SDS011;6305;48.398;11.762;2023-05-06T13:02:49;1.38;;;1.10;;
12480;SDS011;6305;48.398;11.762;2023-05-06T13:05:16;2.83;;;1.33;;
12480;SDS011;6305;48.398;11.762;2023-05-06T13:07:45;1.20;;;0.98;;
12480;SDS011;6305;48.398;11.762;2023-05-06T13:10:12;1.00;;;0.90;;
12480;SDS011;6305;48.398;11.762;2023-05-06T13:12:39;1.15;;;0.93;;
12480;SDS011;6305;48.398;11.762;2023-05-06T13:15:06;1.27;;;0.90;;
12480;SDS011;6305;48.398;11.762;2023-05-06T13:17:35;1.00;;;0.90;;
12480;SDS011;6305;48.398;11.762;2023-05-06T13:20:02;2.35;;;1.20;;
12480;SDS011;6305;48.398;11.762;2023-05-06T13:22:31;1.63;;;1.15;;
12480;SDS011;6305;48.398;11.762;2023-05-06T13:25:00;1.17;;;1.05;;
12480;SDS011;6305;48.398;11.762;2023-05-06T13:27:28;1.40;;;1.00;;
12480;SDS011;6305;48.398;11.762;2023-05-06T13:29:56;1.48;;;1.38;;
12480;SDS011;6305;48.398;11.762;2023-05-06T13:32:23;2.22;;;1.30;;
12480;SDS011;6305;48.398;11.762;2023-05-06T13:34:51;2.05;;;1.20;;
12480;SDS011;6305;48.398;11.762;2023-05-06T13:37:18;1.80;;;1.00;;
12480;SDS011;6305;48.398;11.762;2023-05-06T13:39:45;1.42;;;1.13;;
12480;SDS011;6305;48.398;11.762;2023-05-06T13:42:13;1.33;;;0.90;;
12480;SDS011;6305;48.398;11.762;2023-05-06T13:44:40;1.60;;;1.35;;
12480;SDS011;6305;48.398;11.762;2023-05-06T13:47:07;1.30;;;1.10;;
12480;SDS011;6305;48.398;11.762;2023-05-06T13:49:34;1.20;;;1.02;;
12480;SDS011;6305;48.398;11.762;2023-05-06T13:52:01;2.28;;;1.25;;
12480;SDS011;6305;48.398;11.762;2023-05-06T13:54:28;1.42;;;1.10;;
12480;SDS011;6305;48.398;11.762;2023-05-06T13:56:55;1.17;;;1.05;;
12480;SDS011;6305;48.398;11.762;2023-05-06T13:59:24;1.98;;;1.27;;
12480;SDS011;6305;48.398;11.762;2023-05-06T14:01:51;1.20;;;1.10;;
12480;SDS011;6305;48.398;11.762;2023-05-06T14:04:19;1.42;;;1.33;;
12480;SDS011;6305;48.398;11.762;2023-05-06T14:06:47;1.85;;;1.50;;
12480;SDS011;6305;48.398;11.762;2023-05-06T14:09:14;1.55;;;1.40;;
12480;SDS011;6305;48.398;11.762;2023-05-06T14:11:41;3.08;;;1.77;;
12480;SDS011;6305;48.398;11.762;2023-05-06T14:14:08;2.75;;;1.30;;
12480;SDS011;6305;48.398;11.762;2023-05-06T14:16:36;1.30;;;1.10;;
12480;SDS011;6305;48.398;11.762;2023-05-06T14:19:03;1.95;;;1.13;;
12480;SDS011;6305;48.398;11.762;2023-05-06T14:21:30;2.05;;;1.15;;
12480;SDS011;6305;48.398;11.762;2023-05-06T14:23:57;2.28;;;1.13;;
12480;SDS011;6305;48.398;11.762;2023-05-06T14:26:29;1.90;;;1.25;;
12480;SDS011;6305;48.398;11.762;2023-05-06T14:28:57;2.05;;;1.30;;
12480;SDS011;6305;48.398;11.762;2023-05-06T14:31:24;1.75;;;1.40;;
12480;SDS011;6305;48.398;11.762;2023-05-06T14:33:53;1.45;;;1.20;;
12480;SDS011;6305;48.398;11.762;2023-05-06T14:36:20;2.10;;;1.10;;
12480;SDS011;6305;48.398;11.762;2023-05-06T14:38:47;1.55;;;1.17;;
12480;SDS011;6305;48.398;11.762;2023-05-06T14:41:15;2.03;;;1.40;;
12480;SDS011;6305;48.398;11.762;2023-05-06T14:43:43;1.65;;;1.55;;
12480;SDS011;6305;48.398;11.762;2023-05-06T14:46:10;1.30;;;1.20;;
12480;SDS011;6305;48.398;11.762;2023-05-06T14:48:38;1.58;;;1.48;;
12480;SDS011;6305;48.398;11.762;2023-05-06T14:51:07;1.60;;;1.23;;
12480;SDS011;6305;48.398;11.762;2023-05-06T14:53:34;3.17;;;1.20;;